createdAt,value
2023-05-11T00:02:42.882Z,12.46
2023-05-11T00:05:47.908Z,12.45
2023-05-11T00:08:49.549Z,12.49
2023-05-11T00:11:53.321Z,12.52
2023-05-11T00:14:54.962Z,12.52
2023-05-11T00:17:56.887Z,12.51
2023-05-11T00:20:58.681Z,12.48
2023-05-11T00:24:00.348Z,12.47
2023-05-11T00:27:03.310Z,12.49
2023-05-11T00:30:06.267Z,12.47
2023-05-11T00:33:08.040Z,12.52
2023-05-11T00:36:09.711Z,12.46
2023-05-11T00:39:11.635Z,12.42
2023-05-11T00:42:14.669Z,12.36
2023-05-11T00:45:16.390Z,12.38
2023-05-11T00:48:18.083Z,12.33
2023-05-11T00:51:19.896Z,12.36
2023-05-11T00:54:21.640Z,12.42
2023-05-11T00:57:25.073Z,12.42
2023-05-11T01:00:26.873Z,12.38
2023-05-11T01:03:28.719Z,12.36
2023-05-11T01:06:39.335Z,12.33
2023-05-11T01:09:52.332Z,12.31
2023-05-11T01:13:02.302Z,12.28
2023-05-11T01:16:10.084Z,12.24
2023-05-11T01:19:23.929Z,12.19
2023-05-11T01:22:37.891Z,12.14
2023-05-11T01:25:53.232Z,12.09
2023-05-11T01:29:14.185Z,12.07
2023-05-11T01:32:20.508Z,12.07
2023-05-11T01:35:24.874Z,12.04
2023-05-11T01:38:30.730Z,12.07
2023-05-11T01:41:34.567Z,12.11
2023-05-11T01:44:39.274Z,12.09
2023-05-11T01:47:45.284Z,12.12
2023-05-11T01:50:49.348Z,12.09
2023-05-11T01:53:53.360Z,12.09
2023-05-11T01:56:57.151Z,12.10
2023-05-11T01:59:59.672Z,12.10
2023-05-11T02:03:05.474Z,12.07
2023-05-11T02:06:09.584Z,12.03
2023-05-11T02:09:12.436Z,12.04
2023-05-11T02:12:18.511Z,12.01
2023-05-11T02:15:21.822Z,11.92
2023-05-11T02:18:25.153Z,11.95
2023-05-11T02:21:28.074Z,11.94
2023-05-11T02:24:31.168Z,11.95
2023-05-11T02:27:32.981Z,11.82
2023-05-11T02:30:40.776Z,11.87
2023-05-11T02:33:47.324Z,11.83
2023-05-11T02:36:51.189Z,11.85
2023-05-11T02:39:59.329Z,11.82
2023-05-11T02:43:09.154Z,11.77
2023-05-11T02:46:15.817Z,11.77
2023-05-11T02:49:23.162Z,11.60
2023-05-11T02:52:26.975Z,11.54
2023-05-11T02:55:29.625Z,11.47
2023-05-11T02:58:31.798Z,11.30
2023-05-11T03:01:33.962Z,11.20
2023-05-11T03:04:37.058Z,11.16
2023-05-11T03:07:38.830Z,10.96
2023-05-11T03:10:41.546Z,10.94
2023-05-11T03:13:44.643Z,10.76
2023-05-11T03:16:47.843Z,10.63
2023-05-11T03:19:52.106Z,10.53
2023-05-11T03:22:55.417Z,10.52
2023-05-11T03:25:57.847Z,10.40
2023-05-11T03:29:00.974Z,10.32
2023-05-11T03:32:09.992Z,10.30
2023-05-11T03:35:13.173Z,10.30
2023-05-11T03:38:16.256Z,10.36
2023-05-11T03:41:21.318Z,10.39
2023-05-11T03:44:24.911Z,10.48
2023-05-11T03:47:26.951Z,10.50
2023-05-11T03:50:30.941Z,10.51
2023-05-11T03:53:33.122Z,10.56
2023-05-11T03:56:36.110Z,10.60
2023-05-11T03:59:39.470Z,10.60
2023-05-11T04:02:41.244Z,10.63
2023-05-11T04:05:44.567Z,10.64
2023-05-11T04:08:47.358Z,10.63
2023-05-11T04:11:48.997Z,10.72
2023-05-11T04:14:50.635Z,10.77
2023-05-11T04:17:52.872Z,10.87
2023-05-11T04:20:55.960Z,10.88
2023-05-11T04:23:57.557Z,10.92
2023-05-11T04:26:59.479Z,10.99
2023-05-11T04:30:01.300Z,11.02
2023-05-11T04:33:03.481Z,11.07
2023-05-11T04:36:07.224Z,11.06
2023-05-11T04:39:09.114Z,11.13
2023-05-11T04:42:10.772Z,11.14
2023-05-11T04:45:12.630Z,11.16
2023-05-11T04:48:14.586Z,11.12
2023-05-11T04:51:17.641Z,11.14
2023-05-11T04:54:19.910Z,11.21
2023-05-11T04:57:21.557Z,11.23
2023-05-11T05:00:23.361Z,11.28
2023-05-11T05:03:25.304Z,11.36
2023-05-11T05:06:28.258Z,11.41
2023-05-11T05:09:30.032Z,11.48
2023-05-11T05:12:31.641Z,11.56
2023-05-11T05:15:33.216Z,11.62
2023-05-11T05:18:34.912Z,11.78
2023-05-11T05:21:38.000Z,11.88
2023-05-11T05:24:39.594Z,11.96
2023-05-11T05:27:44.292Z,12.02
2023-05-11T05:30:46.126Z,11.93
2023-05-11T05:33:47.700Z,11.79
2023-05-11T05:36:50.665Z,12.01
2023-05-11T05:39:52.246Z,12.00
2023-05-11T05:42:53.891Z,12.15
2023-05-11T05:45:55.715Z,12.28
2023-05-11T05:48:57.387Z,12.36
2023-05-11T05:52:00.354Z,12.44
2023-05-11T05:55:02.180Z,12.61
2023-05-11T05:58:03.887Z,12.73
2023-05-11T06:01:05.624Z,12.77
2023-05-11T06:04:07.370Z,12.93
2023-05-11T06:07:10.828Z,13.04
2023-05-11T06:10:12.486Z,13.21
2023-05-11T06:13:14.087Z,13.21
2023-05-11T06:16:15.775Z,13.45
2023-05-11T06:19:17.443Z,13.68
2023-05-11T06:22:20.415Z,13.89
2023-05-11T06:25:22.056Z,14.20
2023-05-11T06:28:23.924Z,14.33
2023-05-11T06:31:25.618Z,14.34
2023-05-11T06:34:27.288Z,14.49
2023-05-11T06:37:30.990Z,14.66
2023-05-11T06:40:32.814Z,14.66
2023-05-11T06:43:34.479Z,14.76
2023-05-11T06:46:36.145Z,14.83
2023-05-11T06:49:37.789Z,14.83
2023-05-11T06:52:40.777Z,14.94
2023-05-11T06:55:43.117Z,15.06
2023-05-11T06:58:44.993Z,15.14
2023-05-11T07:01:46.618Z,15.12
2023-05-11T07:04:48.251Z,15.16
2023-05-11T07:07:51.600Z,15.44
2023-05-11T07:10:53.901Z,15.43
2023-05-11T07:13:55.902Z,15.57
2023-05-11T07:16:57.739Z,15.61
2023-05-11T07:19:59.729Z,15.70
2023-05-11T07:23:02.847Z,15.79
2023-05-11T07:26:04.584Z,16.00
2023-05-11T07:29:06.200Z,16.02
2023-05-11T07:32:07.817Z,16.20
2023-05-11T07:35:09.769Z,16.31
2023-05-11T07:38:12.837Z,16.44
2023-05-11T07:41:15.072Z,16.49
2023-05-11T07:44:17.168Z,16.69
2023-05-11T07:47:19.050Z,16.84
2023-05-11T07:50:22.962Z,16.87
2023-05-11T07:53:27.387Z,16.95
2023-05-11T07:56:29.253Z,17.01
2023-05-11T07:59:31.120Z,17.16
2023-05-11T08:02:33.121Z,17.13
2023-05-11T08:05:34.992Z,17.36
2023-05-11T08:08:38.006Z,17.38
2023-05-11T08:11:39.666Z,17.67
2023-05-11T08:14:41.300Z,17.80
2023-05-11T08:17:43.445Z,17.94
2023-05-11T08:20:45.337Z,18.03
2023-05-11T08:23:48.464Z,18.01
2023-05-11T08:26:50.348Z,17.95
2023-05-11T08:29:52.181Z,18.07
2023-05-11T08:32:58.496Z,18.04
2023-05-11T08:36:00.840Z,18.13
2023-05-11T08:39:04.108Z,18.12
2023-05-11T08:42:05.820Z,18.21
2023-05-11T08:45:10.150Z,18.26
2023-05-11T08:48:11.938Z,18.27
2023-05-11T08:51:13.842Z,18.33
2023-05-11T08:54:16.934Z,18.27
2023-05-11T08:57:19.505Z,18.50
2023-05-11T09:00:22.538Z,18.55
2023-05-11T09:03:24.521Z,18.74
2023-05-11T09:06:27.344Z,18.83
2023-05-11T09:09:31.171Z,18.76
2023-05-11T09:12:32.851Z,18.62
2023-05-11T09:15:37.827Z,18.61
2023-05-11T09:18:47.067Z,18.56
2023-05-11T09:21:49.180Z,18.48
2023-05-11T09:24:52.565Z,18.42
2023-05-11T09:27:54.226Z,18.38
2023-05-11T09:30:55.972Z,18.60
2023-05-11T09:34:12.879Z,18.90
2023-05-11T09:37:18.734Z,19.02
2023-05-11T09:40:27.197Z,19.03
2023-05-11T09:43:35.338Z,19.21
2023-05-11T09:46:38.252Z,19.22
2023-05-11T09:49:40.476Z,19.51
2023-05-11T09:52:50.813Z,19.72
2023-05-11T09:55:55.742Z,19.75
2023-05-11T09:58:57.489Z,19.89
2023-05-11T10:02:18.588Z,19.84
2023-05-11T10:05:20.507Z,19.80
2023-05-11T10:08:28.119Z,19.89
2023-05-11T10:11:31.649Z,19.58
2023-05-11T10:14:33.884Z,19.64
2023-05-11T10:17:36.779Z,19.67
2023-05-11T10:20:38.878Z,19.82
2023-05-11T10:23:41.415Z,19.71
2023-05-11T10:26:44.956Z,19.68
2023-05-11T10:29:47.297Z,19.72
2023-05-11T10:32:49.536Z,19.86
2023-05-11T10:35:53.408Z,19.94
2023-05-11T10:38:56.373Z,20.16
2023-05-11T10:42:14.045Z,20.21
2023-05-11T10:45:21.552Z,20.21
2023-05-11T10:48:49.624Z,20.10
2023-05-11T10:52:34.640Z,19.84
2023-05-11T10:55:52.275Z,19.71
2023-05-11T10:59:29.424Z,19.64
2023-05-11T11:02:31.645Z,19.60
2023-05-11T11:05:34.064Z,19.78
2023-05-11T11:08:57.468Z,19.93
2023-05-11T11:12:09.344Z,20.08
2023-05-11T11:15:12.456Z,20.25
2023-05-11T11:18:20.226Z,20.11
2023-05-11T11:21:40.534Z,19.93
2023-05-11T11:24:46.464Z,19.87
2023-05-11T11:27:58.279Z,20.34
2023-05-11T11:31:26.927Z,20.43
2023-05-11T11:34:35.421Z,20.48
2023-05-11T11:38:00.182Z,20.45
2023-05-11T11:41:01.914Z,20.61
2023-05-11T11:44:03.787Z,20.67
2023-05-11T11:47:13.578Z,20.80
2023-05-11T11:50:15.450Z,20.63
2023-05-11T11:54:05.723Z,20.50
2023-05-11T11:57:40.547Z,20.36
2023-05-11T12:00:49.746Z,20.54
2023-05-11T12:04:09.371Z,20.65
2023-05-11T12:07:12.810Z,20.61
2023-05-11T12:10:15.381Z,20.50
2023-05-11T12:13:19.534Z,20.33
2023-05-11T12:16:21.494Z,20.42
2023-05-11T12:19:25.496Z,20.42
2023-05-11T12:22:27.234Z,20.45
2023-05-11T12:25:29.230Z,20.65
2023-05-11T12:28:30.928Z,20.75
2023-05-11T12:31:35.438Z,20.90
2023-05-11T12:34:38.598Z,20.78
2023-05-11T12:37:41.635Z,20.76
2023-05-11T12:40:47.432Z,20.91
2023-05-11T12:43:49.475Z,20.98
2023-05-11T12:46:51.724Z,21.05
2023-05-11T12:49:54.699Z,20.86
2023-05-11T12:53:13.893Z,20.87
2023-05-11T12:56:15.633Z,20.89
2023-05-11T12:59:27.645Z,21.11
2023-05-11T13:02:29.514Z,21.22
2023-05-11T13:05:32.774Z,21.13
2023-05-11T13:08:34.625Z,21.11
2023-05-11T13:11:36.220Z,21.13
2023-05-11T13:14:37.951Z,21.05
2023-05-11T13:17:41.456Z,20.99
2023-05-11T13:20:44.693Z,21.17
2023-05-11T13:23:49.208Z,20.97
2023-05-11T13:26:51.477Z,20.87
2023-05-11T13:29:53.263Z,21.10
2023-05-11T13:32:55.086Z,20.96
2023-05-11T13:35:58.136Z,21.26
2023-05-11T13:38:59.762Z,21.10
2023-05-11T13:42:01.443Z,21.03
2023-05-11T13:45:03.669Z,21.13
2023-05-11T13:48:05.863Z,21.16
2023-05-11T13:51:09.001Z,21.18
2023-05-11T13:54:10.643Z,21.30
2023-05-11T13:57:12.354Z,21.26
2023-05-11T14:00:15.550Z,21.01
2023-05-11T14:03:17.093Z,21.20
2023-05-11T14:06:22.642Z,21.11
2023-05-11T14:09:24.367Z,20.86
2023-05-11T14:12:26.241Z,20.83
2023-05-11T14:15:27.981Z,20.93
2023-05-11T14:18:29.795Z,21.13
2023-05-11T14:21:32.959Z,20.85
2023-05-11T14:24:34.558Z,20.73
2023-05-11T14:27:36.266Z,20.55
2023-05-11T14:30:37.969Z,20.49
2023-05-11T14:33:39.759Z,20.39
2023-05-11T14:36:42.842Z,20.27
2023-05-11T14:39:44.541Z,19.99
2023-05-11T14:42:46.294Z,19.88
2023-05-11T14:45:48.233Z,19.80
2023-05-11T14:48:49.864Z,19.72
2023-05-11T14:51:52.891Z,19.69
2023-05-11T14:54:54.567Z,19.57
2023-05-11T14:57:56.192Z,19.47
2023-05-11T15:00:57.907Z,19.40
2023-05-11T15:03:59.892Z,19.29
2023-05-11T15:07:02.894Z,19.21
2023-05-11T15:10:05.411Z,19.09
2023-05-11T15:13:07.221Z,18.93
2023-05-11T15:16:09.524Z,18.88
2023-05-11T15:19:11.224Z,18.80
2023-05-11T15:22:14.419Z,18.73
2023-05-11T15:25:16.285Z,18.75
2023-05-11T15:28:18.133Z,18.70
2023-05-11T15:31:20.240Z,18.69
2023-05-11T15:34:21.913Z,18.67
2023-05-11T15:37:24.988Z,18.62
2023-05-11T15:40:26.665Z,18.60
2023-05-11T15:43:28.479Z,18.56
2023-05-11T15:46:30.285Z,18.51
2023-05-11T15:49:32.336Z,18.52
2023-05-11T15:52:35.483Z,18.49
2023-05-11T15:55:37.195Z,18.46
2023-05-11T15:58:39.226Z,18.38
2023-05-11T16:01:41.044Z,18.38
2023-05-11T16:04:43.752Z,18.31
2023-05-11T16:07:47.045Z,18.28
2023-05-11T16:10:48.455Z,18.29
2023-05-11T16:13:50.130Z,18.26
2023-05-11T16:16:51.804Z,18.22
2023-05-11T16:19:53.708Z,18.14
2023-05-11T16:22:56.803Z,18.11
2023-05-11T16:26:16.403Z,18.07
2023-05-11T16:29:18.138Z,17.99
2023-05-11T16:32:20.130Z,17.99
2023-05-11T16:35:21.763Z,17.93
2023-05-11T16:38:24.827Z,17.94
2023-05-11T16:41:26.553Z,17.90
2023-05-11T16:44:28.602Z,17.80
2023-05-11T16:47:30.282Z,17.70
2023-05-11T16:50:32.204Z,17.60
2023-05-11T16:53:35.312Z,17.47
2023-05-11T16:56:37.182Z,17.43
2023-05-11T16:59:38.863Z,17.26
2023-05-11T17:02:40.892Z,17.16
2023-05-11T17:05:43.017Z,17.04
2023-05-11T17:08:46.676Z,16.95
2023-05-11T17:11:48.688Z,16.93
2023-05-11T17:14:50.365Z,16.83
2023-05-11T17:17:52.066Z,16.76
2023-05-11T17:20:54.496Z,16.61
2023-05-11T17:23:57.804Z,16.41
2023-05-11T17:26:59.584Z,16.22
2023-05-11T17:30:01.433Z,16.10
2023-05-11T17:33:03.441Z,15.98
2023-05-11T17:36:05.957Z,15.80
2023-05-11T17:39:09.090Z,15.66
2023-05-11T17:42:12.139Z,15.61
2023-05-11T17:45:13.911Z,15.48
2023-05-11T17:48:15.622Z,15.43
2023-05-11T17:51:17.577Z,15.44
2023-05-11T17:54:20.770Z,15.33
2023-05-11T17:57:22.466Z,15.37
2023-05-11T18:00:24.439Z,15.35
2023-05-11T18:03:26.213Z,15.32
2023-05-11T18:06:28.273Z,15.20
2023-05-11T18:09:31.546Z,15.09
2023-05-11T18:12:33.215Z,15.04
2023-05-11T18:15:34.931Z,14.99
2023-05-11T18:18:36.667Z,14.88
2023-05-11T18:21:38.404Z,14.91
2023-05-11T18:24:41.514Z,14.85
2023-05-11T18:27:43.417Z,14.83
2023-05-11T18:30:45.119Z,14.78
2023-05-11T18:33:47.007Z,14.71
2023-05-11T18:36:48.667Z,14.70
2023-05-11T18:39:51.876Z,14.63
2023-05-11T18:42:53.563Z,14.55
2023-05-11T18:45:55.664Z,14.55
2023-05-11T18:48:57.477Z,14.47
2023-05-11T18:51:59.686Z,14.44
2023-05-11T18:55:02.807Z,14.40
2023-05-11T18:58:04.770Z,14.34
2023-05-11T19:01:06.759Z,14.22
2023-05-11T19:04:08.833Z,14.23
2023-05-11T19:07:10.856Z,14.14
2023-05-11T19:10:13.905Z,14.01
2023-05-11T19:13:15.493Z,14.04
2023-05-11T19:16:17.603Z,13.93
2023-05-11T19:19:19.247Z,13.85
2023-05-11T19:22:20.952Z,13.80
2023-05-11T19:25:28.157Z,13.77
2023-05-11T19:28:29.873Z,13.59
2023-05-11T19:31:31.844Z,13.60
2023-05-11T19:34:33.794Z,13.52
2023-05-11T19:37:35.852Z,13.41
2023-05-11T19:40:45.947Z,13.36
2023-05-11T19:43:48.210Z,13.31
2023-05-11T19:46:49.984Z,13.34
2023-05-11T19:49:51.914Z,13.44
2023-05-11T19:52:53.933Z,13.49
2023-05-11T19:55:57.343Z,13.37
2023-05-11T19:58:58.860Z,13.44
2023-05-11T20:02:01.123Z,13.38
2023-05-11T20:05:02.995Z,13.42
2023-05-11T20:08:05.051Z,13.35
2023-05-11T20:11:08.363Z,13.31
2023-05-11T20:14:10.372Z,13.15
2023-05-11T20:17:12.128Z,13.14
2023-05-11T20:20:13.761Z,13.16
2023-05-11T20:23:15.566Z,13.14
2023-05-11T20:26:18.534Z,13.10
2023-05-11T20:29:20.300Z,13.15
2023-05-11T20:32:21.988Z,13.09
2023-05-11T20:35:23.580Z,13.10
2023-05-11T20:38:25.563Z,13.12
2023-05-11T20:41:29.446Z,13.07
2023-05-11T20:44:31.068Z,13.10
2023-05-11T20:47:33.334Z,13.01
2023-05-11T20:50:35.015Z,13.00
2023-05-11T20:53:36.717Z,12.96
2023-05-11T20:56:39.758Z,12.81
2023-05-11T21:02:46.094Z,12.85
2023-05-11T21:05:47.875Z,12.80
2023-05-11T21:08:49.743Z,12.90
2023-05-11T21:11:52.875Z,12.82
2023-05-11T21:14:56.754Z,12.89
2023-05-11T21:17:58.926Z,12.88
2023-05-11T21:21:00.637Z,12.84
2023-05-11T21:24:02.272Z,12.87
2023-05-11T21:27:05.595Z,12.69
2023-05-11T21:30:08.175Z,12.61
2023-05-11T21:33:10.122Z,12.65
2023-05-11T21:36:11.797Z,12.65
2023-05-11T21:39:13.432Z,12.60
2023-05-11T21:42:16.696Z,12.69
2023-05-11T21:45:18.565Z,12.50
2023-05-11T21:48:21.104Z,12.37
2023-05-11T21:51:22.991Z,12.50
2023-05-11T21:54:24.991Z,12.46
2023-05-11T21:57:27.984Z,12.55
2023-05-11T22:00:29.910Z,12.34
2023-05-11T22:03:31.782Z,12.34
2023-05-11T22:06:33.591Z,12.32
2023-05-11T22:09:35.364Z,12.44
2023-05-11T22:12:38.336Z,12.31
2023-05-11T22:15:39.974Z,12.37
2023-05-11T22:18:41.863Z,12.42
2023-05-11T22:21:43.505Z,12.42
2023-05-11T22:24:45.137Z,12.31
2023-05-11T22:27:48.083Z,12.32
2023-05-11T22:30:49.929Z,12.31
2023-05-11T22:33:51.486Z,12.22
2023-05-11T22:36:53.317Z,12.25
2023-05-11T22:39:55.082Z,12.19
2023-05-11T22:42:58.084Z,12.12
2023-05-11T22:45:59.738Z,11.99
2023-05-11T22:49:01.427Z,11.89
2023-05-11T22:52:03.230Z,11.86
2023-05-11T22:55:06.020Z,11.82
2023-05-11T22:58:09.033Z,11.72
2023-05-11T23:01:10.727Z,11.74
2023-05-11T23:04:12.465Z,11.71
2023-05-11T23:07:14.103Z,11.67
2023-05-11T23:10:15.751Z,11.64
2023-05-11T23:13:18.772Z,11.61
2023-05-11T23:16:20.375Z,11.60
2023-05-11T23:19:22.080Z,11.59
2023-05-11T23:22:23.893Z,11.59
2023-05-11T23:25:25.833Z,11.60
2023-05-11T23:28:28.843Z,11.55
2023-05-11T23:31:30.685Z,11.59
2023-05-11T23:34:32.366Z,11.50
2023-05-11T23:37:33.957Z,11.59
2023-05-11T23:40:35.652Z,11.60
2023-05-11T23:43:38.849Z,11.61
2023-05-11T23:46:40.546Z,11.53
2023-05-11T23:49:42.198Z,11.52
2023-05-11T23:52:44.033Z,11.50
2023-05-11T23:55:47.002Z,11.48
2023-05-11T23:58:50.208Z,11.44
